JST613 WIDD-WIII
Flight info
| Callsign | JST613 |
|---|---|
| Flight time | 1h 13m |
| Altitude | 37000 |
| Route | ANITO B470 BUNIK |
| Aircraft | A320/M-SDE3FGHIRWY/LB1 |
Departure
| Time | 2026-05-05 15:36 |
|---|---|
| Airport | Hang Nadim International Airport (WIDD) |
Arrival
| Time | 2026-05-05 16:49 |
|---|---|
| Airport | Soekarno-Hatta International Airport (WIII) |
| Time | Latitude | Longitude | Altitude | Speed | Heading |
|---|---|---|---|---|---|
| 2026-05-05 14:57 | 1.12322 | 104.11636 | 137 ft | 0 kts | 311° |
| 2026-05-05 15:23 | 1.12312 | 104.11647 | 137 ft | 4 kts | 312° |
| 2026-05-05 15:23 | 1.12294 | 104.11667 | 137 ft | 4 kts | 315° |
| 2026-05-05 15:23 | 1.12274 | 104.11685 | 137 ft | 4 kts | 326° |
| 2026-05-05 15:24 | 1.12252 | 104.11695 | 137 ft | 4 kts | 19° |
| 2026-05-05 15:24 | 1.12245 | 104.11692 | 137 ft | 0 kts | 41° |
| 2026-05-05 15:27 | 1.12249 | 104.11696 | 137 ft | 2 kts | 41° |
| 2026-05-05 15:27 | 1.12264 | 104.11709 | 137 ft | 4 kts | 41° |
| 2026-05-05 15:28 | 1.12289 | 104.11731 | 137 ft | 6 kts | 41° |
| 2026-05-05 15:28 | 1.12322 | 104.11760 | 137 ft | 7 kts | 41° |
| 2026-05-05 15:28 | 1.12341 | 104.11805 | 137 ft | 8 kts | 106° |
| 2026-05-05 15:28 | 1.12328 | 104.11850 | 138 ft | 7 kts | 81° |
| 2026-05-05 15:29 | 1.12363 | 104.11894 | 138 ft | 9 kts | 41° |
| 2026-05-05 15:29 | 1.12418 | 104.11943 | 137 ft | 12 kts | 41° |
| 2026-05-05 15:29 | 1.12486 | 104.12003 | 137 ft | 14 kts | 41° |
| 2026-05-05 15:29 | 1.12566 | 104.12074 | 137 ft | 17 kts | 41° |
| 2026-05-05 15:30 | 1.12659 | 104.12156 | 137 ft | 19 kts | 41° |
| 2026-05-05 15:30 | 1.12763 | 104.12247 | 137 ft | 20 kts | 41° |
| 2026-05-05 15:30 | 1.12871 | 104.12343 | 137 ft | 22 kts | 41° |
| 2026-05-05 15:30 | 1.12988 | 104.12446 | 137 ft | 22 kts | 41° |
| 2026-05-05 15:31 | 1.13076 | 104.12524 | 137 ft | 12 kts | 41° |
| 2026-05-05 15:31 | 1.13146 | 104.12585 | 137 ft | 14 kts | 41° |
| 2026-05-05 15:31 | 1.13209 | 104.12641 | 137 ft | 9 kts | 41° |
| 2026-05-05 15:31 | 1.13247 | 104.12688 | 137 ft | 8 kts | 70° |
| 2026-05-05 15:32 | 1.13239 | 104.12733 | 137 ft | 6 kts | 120° |
| 2026-05-05 15:32 | 1.13235 | 104.12737 | 137 ft | 1 kts | 124° |
| 2026-05-05 15:32 | 1.13226 | 104.12748 | 137 ft | 4 kts | 130° |
| 2026-05-05 15:32 | 1.13201 | 104.12777 | 138 ft | 7 kts | 131° |
| 2026-05-05 15:33 | 1.13188 | 104.12830 | 138 ft | 10 kts | 77° |
| 2026-05-05 15:33 | 1.13239 | 104.12888 | 138 ft | 13 kts | 41° |
| 2026-05-05 15:33 | 1.13316 | 104.12955 | 138 ft | 16 kts | 41° |
| 2026-05-05 15:33 | 1.13380 | 104.12997 | 137 ft | 10 kts | 8° |
| 2026-05-05 15:34 | 1.13440 | 104.12999 | 137 ft | 8 kts | 16° |
| 2026-05-05 15:34 | 1.13463 | 104.13050 | 137 ft | 9 kts | 110° |
| 2026-05-05 15:34 | 1.13410 | 104.13039 | 137 ft | 7 kts | 222° |
| 2026-05-05 15:34 | 1.13403 | 104.13033 | 137 ft | 1 kts | 222° |
| 2026-05-05 15:35 | 1.13392 | 104.13023 | 137 ft | 3 kts | 221° |
| 2026-05-05 15:35 | 1.13323 | 104.12962 | 138 ft | 36 kts | 221° |
| 2026-05-05 15:35 | 1.12962 | 104.12643 | 137 ft | 101 kts | 221° |
| 2026-05-05 15:35 | 1.12304 | 104.12063 | 137 ft | 148 kts | 221° |
| 2026-05-05 15:36 | 1.11456 | 104.11316 | 408 ft | 165 kts | 221° |
| 2026-05-05 15:36 | 1.10592 | 104.10538 | 947 ft | 169 kts | 222° |
| 2026-05-05 15:36 | 1.09723 | 104.09724 | 1537 ft | 173 kts | 223° |
| 2026-05-05 15:36 | 1.08819 | 104.08881 | 1964 ft | 187 kts | 221° |
| 2026-05-05 15:37 | 1.07798 | 104.07962 | 2177 ft | 209 kts | 221° |
| 2026-05-05 15:37 | 1.07052 | 104.07296 | 2332 ft | 222 kts | 221° |
| 2026-05-05 15:37 | 1.05845 | 104.06218 | 2677 ft | 240 kts | 220° |
| 2026-05-05 15:37 | 1.04383 | 104.05411 | 3287 ft | 246 kts | 191° |
| 2026-05-05 15:38 | 1.02665 | 104.05396 | 3893 ft | 255 kts | 168° |
| 2026-05-05 15:38 | 1.01034 | 104.06189 | 4403 ft | 270 kts | 137° |
| 2026-05-05 15:38 | 0.99951 | 104.07731 | 5144 ft | 276 kts | 116° |
| 2026-05-05 15:38 | 0.99072 | 104.09444 | 5952 ft | 279 kts | 118° |
| 2026-05-05 15:39 | 0.98117 | 104.11146 | 6732 ft | 282 kts | 120° |
| 2026-05-05 15:39 | 0.97134 | 104.12840 | 7472 ft | 285 kts | 121° |
| 2026-05-05 15:39 | 0.96125 | 104.14571 | 8221 ft | 288 kts | 120° |
| 2026-05-05 15:39 | 0.95118 | 104.16310 | 8958 ft | 291 kts | 120° |
| 2026-05-05 15:40 | 0.94103 | 104.18077 | 9691 ft | 295 kts | 120° |
| 2026-05-05 15:40 | 0.93092 | 104.19846 | 10282 ft | 302 kts | 120° |
| 2026-05-05 15:40 | 0.92019 | 104.21739 | 10431 ft | 324 kts | 120° |
| 2026-05-05 15:40 | 0.90877 | 104.23767 | 10660 ft | 342 kts | 120° |
| 2026-05-05 15:41 | 0.89702 | 104.25853 | 11156 ft | 348 kts | 119° |
| 2026-05-05 15:41 | 0.88508 | 104.27969 | 11766 ft | 351 kts | 119° |
| 2026-05-05 15:41 | 0.87303 | 104.30103 | 12371 ft | 353 kts | 119° |
| 2026-05-05 15:41 | 0.86091 | 104.32252 | 12980 ft | 356 kts | 119° |
| 2026-05-05 15:42 | 0.84871 | 104.34415 | 13559 ft | 359 kts | 119° |
| 2026-05-05 15:42 | 0.83640 | 104.36597 | 14091 ft | 361 kts | 119° |
| 2026-05-05 15:42 | 0.82396 | 104.38797 | 14600 ft | 364 kts | 119° |
| 2026-05-05 15:42 | 0.81145 | 104.41007 | 15108 ft | 367 kts | 119° |
| 2026-05-05 15:43 | 0.79902 | 104.43211 | 15607 ft | 369 kts | 118° |
| 2026-05-05 15:43 | 0.78638 | 104.45457 | 16106 ft | 372 kts | 118° |
| 2026-05-05 15:43 | 0.77360 | 104.47726 | 16594 ft | 375 kts | 118° |
| 2026-05-05 15:43 | 0.76074 | 104.50003 | 17079 ft | 378 kts | 118° |
| 2026-05-05 15:44 | 0.74774 | 104.52299 | 17559 ft | 381 kts | 120° |
| 2026-05-05 15:44 | 0.73218 | 104.54455 | 18036 ft | 384 kts | 131° |
| 2026-05-05 15:44 | 0.71246 | 104.56270 | 18463 ft | 388 kts | 142° |
| 2026-05-05 15:44 | 0.68913 | 104.57664 | 18855 ft | 393 kts | 154° |
| 2026-05-05 15:45 | 0.66324 | 104.58576 | 19255 ft | 397 kts | 162° |
| 2026-05-05 15:45 | 0.63659 | 104.59351 | 19664 ft | 399 kts | 162° |
| 2026-05-05 15:45 | 0.60994 | 104.60138 | 20063 ft | 402 kts | 162° |
| 2026-05-05 15:45 | 0.58300 | 104.60944 | 20459 ft | 404 kts | 162° |
| 2026-05-05 15:46 | 0.55631 | 104.61746 | 20850 ft | 407 kts | 161° |
| 2026-05-05 15:46 | 0.52908 | 104.62563 | 21241 ft | 410 kts | 161° |
| 2026-05-05 15:46 | 0.50162 | 104.63384 | 21634 ft | 413 kts | 162° |
| 2026-05-05 15:46 | 0.47407 | 104.64205 | 22007 ft | 415 kts | 162° |
| 2026-05-05 15:47 | 0.44626 | 104.65028 | 22385 ft | 418 kts | 162° |
| 2026-05-05 15:47 | 0.41822 | 104.65856 | 22740 ft | 420 kts | 162° |
| 2026-05-05 15:47 | 0.39013 | 104.66684 | 23092 ft | 423 kts | 162° |
| 2026-05-05 15:47 | 0.36179 | 104.67522 | 23441 ft | 426 kts | 161° |
| 2026-05-05 15:48 | 0.33330 | 104.68366 | 23733 ft | 428 kts | 161° |
| 2026-05-05 15:48 | 0.30469 | 104.69215 | 24037 ft | 430 kts | 161° |
| 2026-05-05 15:48 | 0.27592 | 104.70068 | 24342 ft | 431 kts | 161° |
| 2026-05-05 15:48 | 0.24706 | 104.70922 | 24645 ft | 433 kts | 162° |
| 2026-05-05 15:49 | 0.21843 | 104.71766 | 24942 ft | 435 kts | 162° |
| 2026-05-05 15:49 | 0.18927 | 104.72628 | 25238 ft | 437 kts | 161° |
| 2026-05-05 15:49 | 0.16004 | 104.73495 | 25541 ft | 438 kts | 161° |
| 2026-05-05 15:49 | 0.13072 | 104.74366 | 25822 ft | 440 kts | 161° |
| 2026-05-05 15:50 | 0.10127 | 104.75241 | 26115 ft | 442 kts | 161° |
| 2026-05-05 15:50 | 0.07169 | 104.76119 | 26402 ft | 444 kts | 162° |
| 2026-05-05 15:50 | 0.04202 | 104.76999 | 26688 ft | 446 kts | 162° |
| 2026-05-05 15:50 | 0.01219 | 104.77885 | 26963 ft | 448 kts | 161° |
| 2026-05-05 15:51 | -0.01772 | 104.78776 | 27237 ft | 449 kts | 162° |
| 2026-05-05 15:51 | -0.04738 | 104.79656 | 27511 ft | 451 kts | 162° |
| 2026-05-05 15:51 | -0.07792 | 104.80561 | 27787 ft | 453 kts | 162° |
| 2026-05-05 15:51 | -0.10819 | 104.81458 | 28063 ft | 455 kts | 162° |
| 2026-05-05 15:52 | -0.13823 | 104.82350 | 28343 ft | 457 kts | 162° |
| 2026-05-05 15:52 | -0.16871 | 104.83260 | 28623 ft | 459 kts | 162° |
| 2026-05-05 15:52 | -0.19948 | 104.84176 | 28899 ft | 461 kts | 162° |
| 2026-05-05 15:52 | -0.23030 | 104.85093 | 29172 ft | 463 kts | 162° |
| 2026-05-05 15:53 | -0.26117 | 104.86026 | 29487 ft | 463 kts | 159° |
| 2026-05-05 15:53 | -0.29069 | 104.87295 | 29897 ft | 460 kts | 150° |
| 2026-05-05 15:53 | -0.31772 | 104.88985 | 30238 ft | 458 kts | 144° |
| 2026-05-05 15:53 | -0.34416 | 104.90784 | 30586 ft | 458 kts | 144° |
| 2026-05-05 15:54 | -0.37045 | 104.92566 | 30941 ft | 457 kts | 144° |
| 2026-05-05 15:54 | -0.39678 | 104.94345 | 31298 ft | 456 kts | 144° |
| 2026-05-05 15:54 | -0.42302 | 104.96118 | 31667 ft | 455 kts | 144° |
| 2026-05-05 15:54 | -0.44917 | 104.97886 | 32039 ft | 453 kts | 144° |
| 2026-05-05 15:55 | -0.47528 | 104.99651 | 32419 ft | 452 kts | 144° |
| 2026-05-05 15:55 | -0.50130 | 105.01410 | 32802 ft | 451 kts | 144° |
| 2026-05-05 15:55 | -0.52723 | 105.03165 | 33198 ft | 450 kts | 144° |
| 2026-05-05 15:55 | -0.55307 | 105.04915 | 33579 ft | 448 kts | 144° |
| 2026-05-05 15:56 | -0.57858 | 105.06643 | 33941 ft | 447 kts | 144° |
| 2026-05-05 15:56 | -0.60434 | 105.08387 | 34258 ft | 446 kts | 144° |
| 2026-05-05 15:56 | -0.63006 | 105.10125 | 34564 ft | 445 kts | 144° |
| 2026-05-05 15:56 | -0.65569 | 105.11855 | 34860 ft | 445 kts | 144° |
| 2026-05-05 15:57 | -0.68129 | 105.13585 | 35162 ft | 444 kts | 144° |
| 2026-05-05 15:57 | -0.70688 | 105.15319 | 35443 ft | 443 kts | 144° |
| 2026-05-05 15:57 | -0.73237 | 105.17049 | 35723 ft | 443 kts | 144° |
| 2026-05-05 15:57 | -0.75785 | 105.18774 | 36014 ft | 442 kts | 144° |
| 2026-05-05 15:58 | -0.78334 | 105.20497 | 36290 ft | 441 kts | 144° |
| 2026-05-05 15:58 | -0.80873 | 105.22214 | 36560 ft | 441 kts | 144° |
| 2026-05-05 15:58 | -0.83411 | 105.23932 | 36819 ft | 440 kts | 144° |
| 2026-05-05 15:59 | -0.88517 | 105.27387 | 36913 ft | 448 kts | 145° |
| 2026-05-05 15:59 | -0.93672 | 105.30878 | 36911 ft | 451 kts | 144° |
| 2026-05-05 16:00 | -0.98872 | 105.34398 | 36914 ft | 452 kts | 145° |
| 2026-05-05 16:00 | -1.04179 | 105.37850 | 36903 ft | 461 kts | 154° |
| 2026-05-05 16:00 | -1.07227 | 105.38913 | 36918 ft | 468 kts | 166° |
| 2026-05-05 16:01 | -1.10422 | 105.39629 | 36916 ft | 474 kts | 166° |
| 2026-05-05 16:01 | -1.16915 | 105.41027 | 36915 ft | 479 kts | 167° |
| 2026-05-05 16:02 | -1.23453 | 105.42411 | 36912 ft | 480 kts | 167° |
| 2026-05-05 16:02 | -1.29994 | 105.43808 | 36917 ft | 480 kts | 167° |
| 2026-05-05 16:03 | -1.36486 | 105.45217 | 36918 ft | 480 kts | 167° |
| 2026-05-05 16:03 | -1.43029 | 105.46642 | 36914 ft | 481 kts | 167° |
| 2026-05-05 16:04 | -1.49564 | 105.48052 | 36913 ft | 481 kts | 167° |
| 2026-05-05 16:04 | -1.56119 | 105.49464 | 36919 ft | 481 kts | 167° |
| 2026-05-05 16:05 | -1.62664 | 105.50883 | 36917 ft | 481 kts | 167° |
| 2026-05-05 16:05 | -1.69218 | 105.52297 | 36921 ft | 482 kts | 167° |
| 2026-05-05 16:06 | -1.75774 | 105.53714 | 36921 ft | 482 kts | 167° |
| 2026-05-05 16:06 | -1.82296 | 105.55125 | 36923 ft | 482 kts | 167° |
| 2026-05-05 16:07 | -1.88853 | 105.56542 | 36924 ft | 482 kts | 167° |
| 2026-05-05 16:07 | -1.95410 | 105.57962 | 36923 ft | 482 kts | 167° |
| 2026-05-05 16:08 | -2.01967 | 105.59380 | 36925 ft | 482 kts | 167° |
| 2026-05-05 16:08 | -2.08525 | 105.60801 | 36925 ft | 482 kts | 167° |
| 2026-05-05 16:09 | -2.15089 | 105.62227 | 36925 ft | 482 kts | 167° |
| 2026-05-05 16:09 | -2.21642 | 105.63647 | 36924 ft | 482 kts | 167° |
| 2026-05-05 16:10 | -2.28204 | 105.65063 | 36921 ft | 482 kts | 167° |
| 2026-05-05 16:10 | -2.34774 | 105.66482 | 36919 ft | 482 kts | 167° |
| 2026-05-05 16:11 | -2.41342 | 105.67901 | 36923 ft | 482 kts | 167° |
| 2026-05-05 16:12 | -2.54462 | 105.70743 | 36918 ft | 482 kts | 167° |
| 2026-05-05 16:13 | -2.70823 | 105.74288 | 36916 ft | 482 kts | 167° |
| 2026-05-05 16:13 | -2.77385 | 105.75707 | 36914 ft | 482 kts | 167° |
| 2026-05-05 16:14 | -2.90500 | 105.78545 | 36916 ft | 482 kts | 167° |
| 2026-05-05 16:15 | -3.03617 | 105.81391 | 36914 ft | 482 kts | 167° |
| 2026-05-05 16:16 | -3.16342 | 105.85255 | 36914 ft | 480 kts | 155° |
| 2026-05-05 16:17 | -3.25484 | 105.89398 | 36918 ft | 481 kts | 154° |
| 2026-05-05 16:18 | -3.34625 | 105.93563 | 36905 ft | 481 kts | 155° |
| 2026-05-05 16:19 | -3.43783 | 105.97714 | 36913 ft | 481 kts | 155° |
| 2026-05-05 16:19 | -3.52937 | 106.01852 | 36923 ft | 481 kts | 155° |
| 2026-05-05 16:20 | -3.65153 | 106.07384 | 36922 ft | 482 kts | 155° |
| 2026-05-05 16:22 | -3.80396 | 106.14298 | 36926 ft | 482 kts | 154° |
| 2026-05-05 16:23 | -3.91625 | 106.19393 | 36929 ft | 482 kts | 155° |
| 2026-05-05 16:23 | -4.00783 | 106.23546 | 36931 ft | 481 kts | 154° |
| 2026-05-05 16:24 | -4.06886 | 106.26312 | 36928 ft | 481 kts | 154° |
| 2026-05-05 16:25 | -4.15878 | 106.30396 | 36740 ft | 462 kts | 154° |
| 2026-05-05 16:25 | -4.21689 | 106.33032 | 35783 ft | 457 kts | 154° |
| 2026-05-05 16:25 | -4.24594 | 106.34349 | 35193 ft | 458 kts | 154° |
| 2026-05-05 16:26 | -4.30414 | 106.36994 | 33955 ft | 461 kts | 154° |
| 2026-05-05 16:26 | -4.36244 | 106.39648 | 32811 ft | 457 kts | 154° |
| 2026-05-05 16:27 | -4.39135 | 106.40962 | 32316 ft | 454 kts | 154° |
| 2026-05-05 16:27 | -4.42001 | 106.42263 | 31837 ft | 451 kts | 154° |
| 2026-05-05 16:27 | -4.44847 | 106.43552 | 31361 ft | 447 kts | 154° |
| 2026-05-05 16:27 | -4.47674 | 106.44831 | 30872 ft | 444 kts | 154° |
| 2026-05-05 16:28 | -4.50485 | 106.46105 | 30403 ft | 441 kts | 154° |
| 2026-05-05 16:28 | -4.53273 | 106.47372 | 29922 ft | 438 kts | 154° |
| 2026-05-05 16:28 | -4.56034 | 106.48628 | 29386 ft | 435 kts | 154° |
| 2026-05-05 16:28 | -4.58781 | 106.49881 | 28873 ft | 431 kts | 154° |
| 2026-05-05 16:29 | -4.61499 | 106.51121 | 28374 ft | 428 kts | 154° |
| 2026-05-05 16:29 | -4.64166 | 106.52334 | 27896 ft | 424 kts | 154° |
| 2026-05-05 16:29 | -4.66847 | 106.53551 | 27422 ft | 421 kts | 154° |
| 2026-05-05 16:29 | -4.69499 | 106.54757 | 26962 ft | 417 kts | 154° |
| 2026-05-05 16:30 | -4.72132 | 106.55953 | 26514 ft | 414 kts | 154° |
| 2026-05-05 16:30 | -4.74747 | 106.57142 | 26074 ft | 411 kts | 154° |
| 2026-05-05 16:30 | -4.77348 | 106.58324 | 25646 ft | 408 kts | 154° |
| 2026-05-05 16:30 | -4.79925 | 106.59492 | 25233 ft | 405 kts | 154° |
| 2026-05-05 16:31 | -4.82484 | 106.60652 | 24825 ft | 402 kts | 154° |
| 2026-05-05 16:31 | -4.85021 | 106.61806 | 24439 ft | 400 kts | 154° |
| 2026-05-05 16:31 | -4.87543 | 106.62951 | 24087 ft | 396 kts | 154° |
| 2026-05-05 16:31 | -4.90052 | 106.64092 | 23717 ft | 393 kts | 154° |
| 2026-05-05 16:32 | -4.92526 | 106.65221 | 23294 ft | 390 kts | 154° |
| 2026-05-05 16:32 | -4.94981 | 106.66346 | 22843 ft | 387 kts | 154° |
| 2026-05-05 16:32 | -4.97421 | 106.67466 | 22385 ft | 384 kts | 154° |
| 2026-05-05 16:32 | -4.99845 | 106.68578 | 21936 ft | 381 kts | 154° |
| 2026-05-05 16:33 | -5.02251 | 106.69680 | 21480 ft | 379 kts | 154° |
| 2026-05-05 16:33 | -5.04641 | 106.70771 | 21033 ft | 376 kts | 154° |
| 2026-05-05 16:33 | -5.07014 | 106.71855 | 20586 ft | 374 kts | 154° |
| 2026-05-05 16:33 | -5.09372 | 106.72934 | 20151 ft | 371 kts | 154° |
| 2026-05-05 16:34 | -5.11713 | 106.74006 | 19719 ft | 369 kts | 154° |
| 2026-05-05 16:34 | -5.14037 | 106.75071 | 19303 ft | 366 kts | 154° |
| 2026-05-05 16:34 | -5.16353 | 106.76131 | 18886 ft | 364 kts | 154° |
| 2026-05-05 16:34 | -5.18621 | 106.77167 | 18494 ft | 361 kts | 154° |
| 2026-05-05 16:35 | -5.20902 | 106.78203 | 18072 ft | 359 kts | 154° |
| 2026-05-05 16:35 | -5.23177 | 106.79231 | 17612 ft | 357 kts | 154° |
| 2026-05-05 16:35 | -5.25434 | 106.80250 | 17161 ft | 354 kts | 154° |
| 2026-05-05 16:35 | -5.27673 | 106.81260 | 16727 ft | 352 kts | 154° |
| 2026-05-05 16:36 | -5.29900 | 106.82266 | 16304 ft | 349 kts | 154° |
| 2026-05-05 16:36 | -5.32107 | 106.83263 | 15879 ft | 347 kts | 154° |
| 2026-05-05 16:36 | -5.34301 | 106.84254 | 15473 ft | 344 kts | 154° |
| 2026-05-05 16:36 | -5.36463 | 106.85233 | 15107 ft | 343 kts | 154° |
| 2026-05-05 16:37 | -5.38633 | 106.86219 | 14734 ft | 341 kts | 154° |
| 2026-05-05 16:37 | -5.40788 | 106.87200 | 14372 ft | 339 kts | 154° |
| 2026-05-05 16:37 | -5.42928 | 106.88174 | 14008 ft | 336 kts | 154° |
| 2026-05-05 16:37 | -5.45048 | 106.89136 | 13645 ft | 333 kts | 154° |
| 2026-05-05 16:38 | -5.47211 | 106.89944 | 13233 ft | 332 kts | 166° |
| 2026-05-05 16:38 | -5.49507 | 106.90151 | 12834 ft | 332 kts | 179° |
| 2026-05-05 16:38 | -5.51812 | 106.90115 | 12441 ft | 330 kts | 179° |
| 2026-05-05 16:38 | -5.54100 | 106.90078 | 12047 ft | 328 kts | 179° |
| 2026-05-05 16:39 | -5.56386 | 106.90041 | 11663 ft | 327 kts | 179° |
| 2026-05-05 16:39 | -5.58658 | 106.90005 | 11283 ft | 325 kts | 179° |
| 2026-05-05 16:39 | -5.60915 | 106.89969 | 10904 ft | 324 kts | 179° |
| 2026-05-05 16:39 | -5.63165 | 106.89934 | 10534 ft | 322 kts | 179° |
| 2026-05-05 16:40 | -5.65402 | 106.89901 | 10155 ft | 321 kts | 179° |
| 2026-05-05 16:40 | -5.67633 | 106.89868 | 9765 ft | 320 kts | 179° |
| 2026-05-05 16:40 | -5.69866 | 106.89837 | 9336 ft | 320 kts | 179° |
| 2026-05-05 16:40 | -5.72034 | 106.89805 | 8899 ft | 310 kts | 179° |
| 2026-05-05 16:41 | -5.74160 | 106.89769 | 8492 ft | 299 kts | 179° |
| 2026-05-05 16:41 | -5.76208 | 106.89726 | 8081 ft | 290 kts | 179° |
| 2026-05-05 16:41 | -5.78192 | 106.89680 | 7675 ft | 281 kts | 179° |
| 2026-05-05 16:41 | -5.80127 | 106.89635 | 7273 ft | 275 kts | 179° |
| 2026-05-05 16:42 | -5.82028 | 106.89592 | 6874 ft | 272 kts | 179° |
| 2026-05-05 16:42 | -5.83917 | 106.89552 | 6482 ft | 270 kts | 179° |
| 2026-05-05 16:42 | -5.85793 | 106.89515 | 6079 ft | 271 kts | 179° |
| 2026-05-05 16:42 | -5.87696 | 106.89477 | 5664 ft | 275 kts | 179° |
| 2026-05-05 16:43 | -5.89620 | 106.89438 | 5237 ft | 278 kts | 179° |
| 2026-05-05 16:43 | -5.91566 | 106.89397 | 4795 ft | 283 kts | 179° |
| 2026-05-05 16:43 | -5.93546 | 106.89356 | 4151 ft | 284 kts | 179° |
| 2026-05-05 16:43 | -5.95490 | 106.89229 | 3525 ft | 284 kts | 192° |
| 2026-05-05 16:44 | -5.97233 | 106.88302 | 3095 ft | 278 kts | 220° |
| 2026-05-05 16:44 | -5.98629 | 106.87070 | 2997 ft | 257 kts | 219° |
| 2026-05-05 16:44 | -5.99912 | 106.85957 | 2996 ft | 235 kts | 219° |
| 2026-05-05 16:44 | -6.01129 | 106.84916 | 2998 ft | 231 kts | 218° |
| 2026-05-05 16:45 | -6.02334 | 106.83858 | 3001 ft | 231 kts | 228° |
| 2026-05-05 16:45 | -6.03087 | 106.82443 | 3003 ft | 232 kts | 256° |
| 2026-05-05 16:45 | -6.03505 | 106.80879 | 3002 ft | 232 kts | 242° |
| 2026-05-05 16:45 | -6.04486 | 106.79616 | 3008 ft | 228 kts | 226° |
| 2026-05-05 16:46 | -6.05492 | 106.78443 | 3003 ft | 217 kts | 229° |
| 2026-05-05 16:46 | -6.06446 | 106.77278 | 2778 ft | 214 kts | 229° |
| 2026-05-05 16:46 | -6.07275 | 106.76116 | 2424 ft | 198 kts | 244° |
| 2026-05-05 16:46 | -6.07751 | 106.74863 | 1947 ft | 187 kts | 248° |
| 2026-05-05 16:47 | -6.08215 | 106.73662 | 1465 ft | 183 kts | 248° |
| 2026-05-05 16:47 | -6.08679 | 106.72483 | 1055 ft | 178 kts | 247° |
| 2026-05-05 16:47 | -6.09112 | 106.71386 | 930 ft | 162 kts | 245° |
| 2026-05-05 16:47 | -6.09519 | 106.70362 | 760 ft | 157 kts | 246° |
| 2026-05-05 16:48 | -6.09923 | 106.69349 | 572 ft | 155 kts | 247° |
| 2026-05-05 16:48 | -6.10322 | 106.68347 | 375 ft | 153 kts | 248° |
| 2026-05-05 16:48 | -6.10715 | 106.67356 | 166 ft | 152 kts | 248° |
| 2026-05-05 16:48 | -6.11101 | 106.66388 | 41 ft | 139 kts | 249° |
| 2026-05-05 16:49 | -6.11398 | 106.65643 | 38 ft | 91 kts | 248° |
| 2026-05-05 16:49 | -6.11564 | 106.65228 | 40 ft | 33 kts | 248° |
| 2026-05-05 16:49 | -6.11633 | 106.65101 | 42 ft | 20 kts | 233° |
| 2026-05-05 16:49 | -6.11721 | 106.65013 | 42 ft | 17 kts | 218° |
| 2026-05-05 16:50 | -6.11788 | 106.64969 | 41 ft | 9 kts | 193° |
| 2026-05-05 16:50 | -6.11836 | 106.64981 | 39 ft | 9 kts | 158° |
| 2026-05-05 16:50 | -6.11891 | 106.65003 | 39 ft | 6 kts | 159° |
| 2026-05-05 16:50 | -6.11927 | 106.65039 | 39 ft | 9 kts | 103° |
| 2026-05-05 16:51 | -6.11905 | 106.65103 | 38 ft | 11 kts | 67° |
| 2026-05-05 16:51 | -6.11877 | 106.65176 | 39 ft | 10 kts | 68° |
| 2026-05-05 16:51 | -6.11859 | 106.65232 | 38 ft | 8 kts | 88° |
| 2026-05-05 16:51 | -6.11888 | 106.65278 | 38 ft | 8 kts | 129° |
| 2026-05-05 16:52 | -6.11926 | 106.65329 | 38 ft | 10 kts | 125° |
| 2026-05-05 16:52 | -6.11957 | 106.65377 | 38 ft | 4 kts | 113° |
| 2026-05-05 16:52 | -6.11958 | 106.65412 | 38 ft | 6 kts | 77° |
| 2026-05-05 16:52 | -6.11950 | 106.65445 | 38 ft | 0 kts | 97° |
| 2026-05-05 16:53 | -6.11951 | 106.65448 | 38 ft | 2 kts | 107° |
| 2026-05-05 16:53 | -6.11969 | 106.65460 | 37 ft | 4 kts | 163° |
| 2026-05-05 16:53 | -6.11993 | 106.65462 | 38 ft | 3 kts | 176° |
| 2026-05-05 16:53 | -6.12015 | 106.65462 | 38 ft | 3 kts | 178° |
| 2026-05-05 16:54 | -6.12021 | 106.65463 | 38 ft | 0 kts | 178° |